sensor_id;sensor_type;location;lat;lon;timestamp;P1;durP1;ratioP1;P2;durP2;ratioP2
6452;SDS011;3259;51.080;13.712;2023-04-15T00:02:29;0.20;;;0.20;;
6452;SDS011;3259;51.080;13.712;2023-04-15T00:05:18;0.50;;;0.20;;
6452;SDS011;3259;51.080;13.712;2023-04-15T00:08:07;0.93;;;0.30;;
6452;SDS011;3259;51.080;13.712;2023-04-15T00:10:57;0.68;;;0.17;;
6452;SDS011;3259;51.080;13.712;2023-04-15T00:13:48;0.20;;;0.20;;
6452;SDS011;3259;51.080;13.712;2023-04-15T00:16:37;3.95;;;0.20;;
6452;SDS011;3259;51.080;13.712;2023-04-15T00:19:26;0.17;;;0.17;;
6452;SDS011;3259;51.080;13.712;2023-04-15T00:22:15;0.20;;;0.20;;
6452;SDS011;3259;51.080;13.712;2023-04-15T00:25:04;0.22;;;0.10;;
6452;SDS011;3259;51.080;13.712;2023-04-15T00:27:54;0.30;;;0.30;;
6452;SDS011;3259;51.080;13.712;2023-04-15T00:30:42;1.45;;;0.20;;
6452;SDS011;3259;51.080;13.712;2023-04-15T00:33:31;0.10;;;0.10;;
6452;SDS011;3259;51.080;13.712;2023-04-15T00:36:20;0.20;;;0.20;;
6452;SDS011;3259;51.080;13.712;2023-04-15T00:39:08;0.10;;;0.10;;
6452;SDS011;3259;51.080;13.712;2023-04-15T00:41:57;2.75;;;0.30;;
6452;SDS011;3259;51.080;13.712;2023-04-15T00:44:47;0.03;;;0.03;;
6452;SDS011;3259;51.080;13.712;2023-04-15T00:47:36;0.10;;;0.10;;
6452;SDS011;3259;51.080;13.712;2023-04-15T00:50:25;0.60;;;0.10;;
6452;SDS011;3259;51.080;13.712;2023-04-15T00:53:13;0.10;;;0.10;;
6452;SDS011;3259;51.080;13.712;2023-04-15T00:56:02;0.20;;;0.20;;
6452;SDS011;3259;51.080;13.712;2023-04-15T00:58:53;0.10;;;0.10;;
6452;SDS011;3259;51.080;13.712;2023-04-15T01:01:43;0.10;;;0.10;;
6452;SDS011;3259;51.080;13.712;2023-04-15T01:04:32;0.10;;;0.10;;
6452;SDS011;3259;51.080;13.712;2023-04-15T01:07:22;1.55;;;0.10;;
6452;SDS011;3259;51.080;13.712;2023-04-15T01:10:11;1.25;;;0.20;;
6452;SDS011;3259;51.080;13.712;2023-04-15T01:12:59;0.10;;;0.10;;
6452;SDS011;3259;51.080;13.712;2023-04-15T01:15:48;1.95;;;0.20;;
6452;SDS011;3259;51.080;13.712;2023-04-15T01:18:39;0.10;;;0.10;;
6452;SDS011;3259;51.080;13.712;2023-04-15T01:21:28;0.30;;;0.13;;
6452;SDS011;3259;51.080;13.712;2023-04-15T01:24:17;0.10;;;0.10;;
6452;SDS011;3259;51.080;13.712;2023-04-15T01:27:08;0.35;;;0.17;;
6452;SDS011;3259;51.080;13.712;2023-04-15T01:29:57;0.43;;;0.10;;
6452;SDS011;3259;51.080;13.712;2023-04-15T01:32:45;0.20;;;0.20;;
6452;SDS011;3259;51.080;13.712;2023-04-15T01:35:34;0.17;;;0.10;;
6452;SDS011;3259;51.080;13.712;2023-04-15T01:38:23;0.38;;;0.10;;
6452;SDS011;3259;51.080;13.712;2023-04-15T01:41:12;0.20;;;0.10;;
6452;SDS011;3259;51.080;13.712;2023-04-15T01:44:07;0.00;;;0.00;;
6452;SDS011;3259;51.080;13.712;2023-04-15T01:46:55;0.10;;;0.10;;
6452;SDS011;3259;51.080;13.712;2023-04-15T01:49:44;0.00;;;0.00;;
6452;SDS011;3259;51.080;13.712;2023-04-15T01:52:33;0.65;;;0.25;;
6452;SDS011;3259;51.080;13.712;2023-04-15T01:55:22;1.95;;;0.20;;
6452;SDS011;3259;51.080;13.712;2023-04-15T01:58:10;2.15;;;0.10;;
6452;SDS011;3259;51.080;13.712;2023-04-15T02:01:00;0.08;;;0.08;;
6452;SDS011;3259;51.080;13.712;2023-04-15T02:03:49;0.10;;;0.10;;
6452;SDS011;3259;51.080;13.712;2023-04-15T02:06:38;0.10;;;0.10;;
6452;SDS011;3259;51.080;13.712;2023-04-15T02:09:27;1.27;;;0.10;;
6452;SDS011;3259;51.080;13.712;2023-04-15T02:12:15;0.70;;;0.10;;
6452;SDS011;3259;51.080;13.712;2023-04-15T02:15:04;0.20;;;0.10;;
6452;SDS011;3259;51.080;13.712;2023-04-15T02:17:55;0.30;;;0.30;;
6452;SDS011;3259;51.080;13.712;2023-04-15T02:20:46;0.13;;;0.13;;
6452;SDS011;3259;51.080;13.712;2023-04-15T02:23:35;0.10;;;0.10;;
6452;SDS011;3259;51.080;13.712;2023-04-15T02:26:24;0.15;;;0.15;;
6452;SDS011;3259;51.080;13.712;2023-04-15T02:29:12;5.38;;;0.25;;
6452;SDS011;3259;51.080;13.712;2023-04-15T02:32:01;0.20;;;0.15;;
6452;SDS011;3259;51.080;13.712;2023-04-15T02:34:51;0.98;;;0.35;;
6452;SDS011;3259;51.080;13.712;2023-04-15T02:37:40;0.20;;;0.10;;
6452;SDS011;3259;51.080;13.712;2023-04-15T02:40:31;2.63;;;0.22;;
6452;SDS011;3259;51.080;13.712;2023-04-15T02:43:19;2.17;;;0.10;;
6452;SDS011;3259;51.080;13.712;2023-04-15T02:46:08;2.08;;;0.13;;
6452;SDS011;3259;51.080;13.712;2023-04-15T02:49:00;0.10;;;0.10;;
6452;SDS011;3259;51.080;13.712;2023-04-15T02:51:50;3.15;;;0.03;;
6452;SDS011;3259;51.080;13.712;2023-04-15T02:54:39;0.20;;;0.10;;
6452;SDS011;3259;51.080;13.712;2023-04-15T02:57:28;0.10;;;0.10;;
6452;SDS011;3259;51.080;13.712;2023-04-15T03:00:16;0.65;;;0.00;;
6452;SDS011;3259;51.080;13.712;2023-04-15T03:03:06;0.00;;;0.00;;
6452;SDS011;3259;51.080;13.712;2023-04-15T03:05:55;0.08;;;0.08;;
6452;SDS011;3259;51.080;13.712;2023-04-15T03:08:45;0.10;;;0.10;;
6452;SDS011;3259;51.080;13.712;2023-04-15T03:11:33;0.10;;;0.10;;
6452;SDS011;3259;51.080;13.712;2023-04-15T03:14:26;0.00;;;0.00;;
6452;SDS011;3259;51.080;13.712;2023-04-15T03:17:14;0.22;;;0.10;;
6452;SDS011;3259;51.080;13.712;2023-04-15T03:20:05;0.20;;;0.10;;
6452;SDS011;3259;51.080;13.712;2023-04-15T03:22:55;1.55;;;0.10;;
6452;SDS011;3259;51.080;13.712;2023-04-15T03:25:45;0.80;;;0.30;;
6452;SDS011;3259;51.080;13.712;2023-04-15T03:28:33;0.38;;;0.10;;
6452;SDS011;3259;51.080;13.712;2023-04-15T03:31:22;0.10;;;0.10;;
6452;SDS011;3259;51.080;13.712;2023-04-15T03:34:11;0.20;;;0.13;;
6452;SDS011;3259;51.080;13.712;2023-04-15T03:37:00;0.10;;;0.10;;
6452;SDS011;3259;51.080;13.712;2023-04-15T03:39:48;1.45;;;0.10;;
6452;SDS011;3259;51.080;13.712;2023-04-15T03:42:38;0.65;;;0.40;;
6452;SDS011;3259;51.080;13.712;2023-04-15T03:45:27;0.10;;;0.10;;
6452;SDS011;3259;51.080;13.712;2023-04-15T03:48:16;0.20;;;0.10;;
6452;SDS011;3259;51.080;13.712;2023-04-15T03:51:04;1.25;;;0.10;;
6452;SDS011;3259;51.080;13.712;2023-04-15T03:53:53;1.55;;;0.00;;
6452;SDS011;3259;51.080;13.712;2023-04-15T03:56:42;0.00;;;0.00;;
6452;SDS011;3259;51.080;13.712;2023-04-15T03:59:32;0.00;;;0.00;;
6452;SDS011;3259;51.080;13.712;2023-04-15T04:02:21;0.03;;;0.03;;
6452;SDS011;3259;51.080;13.712;2023-04-15T04:05:10;0.28;;;0.00;;
6452;SDS011;3259;51.080;13.712;2023-04-15T04:07:59;0.00;;;0.00;;
6452;SDS011;3259;51.080;13.712;2023-04-15T04:10:47;0.10;;;0.00;;
6452;SDS011;3259;51.080;13.712;2023-04-15T04:13:36;0.10;;;0.10;;
6452;SDS011;3259;51.080;13.712;2023-04-15T04:16:26;1.25;;;0.17;;
6452;SDS011;3259;51.080;13.712;2023-04-15T04:19:15;4.03;;;0.08;;
6452;SDS011;3259;51.080;13.712;2023-04-15T04:22:05;0.00;;;0.00;;
6452;SDS011;3259;51.080;13.712;2023-04-15T04:24:54;0.13;;;0.13;;
6452;SDS011;3259;51.080;13.712;2023-04-15T04:27:45;0.22;;;0.10;;
6452;SDS011;3259;51.080;13.712;2023-04-15T04:30:34;0.00;;;0.00;;
6452;SDS011;3259;51.080;13.712;2023-04-15T04:33:24;0.20;;;0.20;;
6452;SDS011;3259;51.080;13.712;2023-04-15T04:36:13;0.32;;;0.10;;
6452;SDS011;3259;51.080;13.712;2023-04-15T04:39:02;1.33;;;0.10;;
6452;SDS011;3259;51.080;13.712;2023-04-15T04:41:51;0.00;;;0.00;;
6452;SDS011;3259;51.080;13.712;2023-04-15T04:44:39;1.55;;;0.20;;
6452;SDS011;3259;51.080;13.712;2023-04-15T04:47:28;0.25;;;0.10;;
6452;SDS011;3259;51.080;13.712;2023-04-15T04:50:18;2.90;;;0.15;;
6452;SDS011;3259;51.080;13.712;2023-04-15T04:53:07;1.52;;;0.15;;
6452;SDS011;3259;51.080;13.712;2023-04-15T04:55:56;0.10;;;0.10;;
6452;SDS011;3259;51.080;13.712;2023-04-15T04:58:44;0.10;;;0.10;;
6452;SDS011;3259;51.080;13.712;2023-04-15T05:01:33;0.13;;;0.10;;
6452;SDS011;3259;51.080;13.712;2023-04-15T05:04:22;0.75;;;0.10;;
6452;SDS011;3259;51.080;13.712;2023-04-15T05:07:12;0.20;;;0.03;;
6452;SDS011;3259;51.080;13.712;2023-04-15T05:10:01;0.17;;;0.17;;
6452;SDS011;3259;51.080;13.712;2023-04-15T05:12:50;0.52;;;0.30;;
6452;SDS011;3259;51.080;13.712;2023-04-15T05:15:38;0.10;;;0.10;;
6452;SDS011;3259;51.080;13.712;2023-04-15T05:18:29;0.73;;;0.10;;
6452;SDS011;3259;51.080;13.712;2023-04-15T05:21:17;0.20;;;0.00;;
6452;SDS011;3259;51.080;13.712;2023-04-15T05:24:07;0.10;;;0.10;;
6452;SDS011;3259;51.080;13.712;2023-04-15T05:26:56;0.20;;;0.20;;
6452;SDS011;3259;51.080;13.712;2023-04-15T05:29:45;0.15;;;0.15;;
6452;SDS011;3259;51.080;13.712;2023-04-15T05:32:33;3.63;;;0.30;;
6452;SDS011;3259;51.080;13.712;2023-04-15T05:35:22;2.17;;;0.30;;
6452;SDS011;3259;51.080;13.712;2023-04-15T05:38:11;1.35;;;0.13;;
6452;SDS011;3259;51.080;13.712;2023-04-15T05:41:01;0.30;;;0.30;;
6452;SDS011;3259;51.080;13.712;2023-04-15T05:43:49;0.28;;;0.20;;
6452;SDS011;3259;51.080;13.712;2023-04-15T05:46:38;0.47;;;0.30;;
6452;SDS011;3259;51.080;13.712;2023-04-15T05:49:27;2.05;;;0.17;;
6452;SDS011;3259;51.080;13.712;2023-04-15T05:52:16;0.55;;;0.17;;
6452;SDS011;3259;51.080;13.712;2023-04-15T05:55:05;1.38;;;0.35;;
6452;SDS011;3259;51.080;13.712;2023-04-15T05:57:55;2.10;;;0.38;;
6452;SDS011;3259;51.080;13.712;2023-04-15T06:00:43;0.25;;;0.20;;
6452;SDS011;3259;51.080;13.712;2023-04-15T06:03:32;1.25;;;0.30;;
6452;SDS011;3259;51.080;13.712;2023-04-15T06:06:22;0.85;;;0.65;;
6452;SDS011;3259;51.080;13.712;2023-04-15T06:09:10;1.88;;;0.30;;
6452;SDS011;3259;51.080;13.712;2023-04-15T06:11:59;1.80;;;0.40;;
6452;SDS011;3259;51.080;13.712;2023-04-15T06:14:50;0.85;;;0.40;;
6452;SDS011;3259;51.080;13.712;2023-04-15T06:17:38;4.15;;;0.20;;
6452;SDS011;3259;51.080;13.712;2023-04-15T06:20:27;3.15;;;0.55;;
6452;SDS011;3259;51.080;13.712;2023-04-15T06:23:16;3.08;;;0.35;;
6452;SDS011;3259;51.080;13.712;2023-04-15T06:26:04;0.20;;;0.20;;
6452;SDS011;3259;51.080;13.712;2023-04-15T06:28:53;3.38;;;0.40;;
6452;SDS011;3259;51.080;13.712;2023-04-15T06:31:43;3.50;;;0.45;;
6452;SDS011;3259;51.080;13.712;2023-04-15T06:34:32;0.10;;;0.10;;
6452;SDS011;3259;51.080;13.712;2023-04-15T06:37:21;7.78;;;0.20;;
6452;SDS011;3259;51.080;13.712;2023-04-15T06:40:10;3.05;;;0.40;;
6452;SDS011;3259;51.080;13.712;2023-04-15T06:42:59;1.50;;;0.30;;
6452;SDS011;3259;51.080;13.712;2023-04-15T06:45:48;12.93;;;1.20;;
6452;SDS011;3259;51.080;13.712;2023-04-15T06:48:38;6.78;;;0.60;;
6452;SDS011;3259;51.080;13.712;2023-04-15T06:51:27;11.27;;;1.35;;
6452;SDS011;3259;51.080;13.712;2023-04-15T06:54:15;6.75;;;0.28;;
6452;SDS011;3259;51.080;13.712;2023-04-15T06:57:04;6.50;;;0.50;;
6452;SDS011;3259;51.080;13.712;2023-04-15T06:59:54;5.70;;;0.50;;
6452;SDS011;3259;51.080;13.712;2023-04-15T07:02:43;3.90;;;0.73;;
6452;SDS011;3259;51.080;13.712;2023-04-15T07:05:34;1.02;;;0.20;;
6452;SDS011;3259;51.080;13.712;2023-04-15T07:08:25;3.88;;;0.35;;
6452;SDS011;3259;51.080;13.712;2023-04-15T07:11:14;4.88;;;0.57;;
6452;SDS011;3259;51.080;13.712;2023-04-15T07:14:03;11.13;;;0.52;;
6452;SDS011;3259;51.080;13.712;2023-04-15T07:16:52;1.50;;;0.35;;
6452;SDS011;3259;51.080;13.712;2023-04-15T07:19:41;1.23;;;0.38;;
6452;SDS011;3259;51.080;13.712;2023-04-15T07:22:31;7.40;;;0.40;;
6452;SDS011;3259;51.080;13.712;2023-04-15T07:25:20;4.45;;;0.70;;
6452;SDS011;3259;51.080;13.712;2023-04-15T07:28:09;5.20;;;0.75;;
6452;SDS011;3259;51.080;13.712;2023-04-15T07:30:58;10.85;;;1.25;;
6452;SDS011;3259;51.080;13.712;2023-04-15T07:33:47;6.43;;;0.90;;
6452;SDS011;3259;51.080;13.712;2023-04-15T07:36:35;4.75;;;0.60;;
6452;SDS011;3259;51.080;13.712;2023-04-15T07:39:26;3.60;;;0.90;;
6452;SDS011;3259;51.080;13.712;2023-04-15T07:42:15;4.22;;;0.70;;
6452;SDS011;3259;51.080;13.712;2023-04-15T07:45:04;4.88;;;1.30;;
6452;SDS011;3259;51.080;13.712;2023-04-15T07:47:54;1.55;;;0.68;;
6452;SDS011;3259;51.080;13.712;2023-04-15T07:50:43;1.95;;;0.52;;
6452;SDS011;3259;51.080;13.712;2023-04-15T07:53:32;4.57;;;1.00;;
6452;SDS011;3259;51.080;13.712;2023-04-15T07:56:23;0.82;;;0.50;;
6452;SDS011;3259;51.080;13.712;2023-04-15T07:59:12;6.45;;;0.80;;
6452;SDS011;3259;51.080;13.712;2023-04-15T08:02:03;10.75;;;1.25;;
6452;SDS011;3259;51.080;13.712;2023-04-15T08:04:52;4.25;;;0.52;;
6452;SDS011;3259;51.080;13.712;2023-04-15T08:07:41;6.13;;;0.80;;
6452;SDS011;3259;51.080;13.712;2023-04-15T08:10:30;5.45;;;0.57;;
6452;SDS011;3259;51.080;13.712;2023-04-15T08:13:20;8.35;;;0.98;;
6452;SDS011;3259;51.080;13.712;2023-04-15T08:16:12;8.27;;;0.63;;
6452;SDS011;3259;51.080;13.712;2023-04-15T08:19:04;6.80;;;0.85;;
6452;SDS011;3259;51.080;13.712;2023-04-15T08:21:52;3.22;;;0.40;;
6452;SDS011;3259;51.080;13.712;2023-04-15T08:24:41;3.10;;;0.30;;
6452;SDS011;3259;51.080;13.712;2023-04-15T08:27:30;1.17;;;0.30;;
6452;SDS011;3259;51.080;13.712;2023-04-15T08:30:20;2.92;;;0.40;;
6452;SDS011;3259;51.080;13.712;2023-04-15T08:33:09;2.95;;;0.40;;
6452;SDS011;3259;51.080;13.712;2023-04-15T08:35:58;1.33;;;0.50;;
6452;SDS011;3259;51.080;13.712;2023-04-15T08:38:46;6.45;;;0.63;;
6452;SDS011;3259;51.080;13.712;2023-04-15T08:41:38;2.00;;;0.38;;
6452;SDS011;3259;51.080;13.712;2023-04-15T08:44:29;1.95;;;0.55;;
6452;SDS011;3259;51.080;13.712;2023-04-15T08:47:21;3.08;;;0.35;;
6452;SDS011;3259;51.080;13.712;2023-04-15T08:50:14;1.15;;;0.47;;
6452;SDS011;3259;51.080;13.712;2023-04-15T08:53:03;0.80;;;0.43;;
6452;SDS011;3259;51.080;13.712;2023-04-15T08:55:53;1.23;;;0.25;;
6452;SDS011;3259;51.080;13.712;2023-04-15T08:58:44;1.48;;;0.50;;
6452;SDS011;3259;51.080;13.712;2023-04-15T09:01:34;0.43;;;0.20;;
6452;SDS011;3259;51.080;13.712;2023-04-15T09:04:24;0.28;;;0.20;;
6452;SDS011;3259;51.080;13.712;2023-04-15T09:07:12;1.77;;;0.60;;
6452;SDS011;3259;51.080;13.712;2023-04-15T09:10:02;4.38;;;0.68;;
6452;SDS011;3259;51.080;13.712;2023-04-15T09:12:51;5.78;;;0.20;;
6452;SDS011;3259;51.080;13.712;2023-04-15T09:15:40;1.88;;;0.10;;
6452;SDS011;3259;51.080;13.712;2023-04-15T09:18:29;1.85;;;0.17;;
6452;SDS011;3259;51.080;13.712;2023-04-15T09:21:20;1.98;;;0.20;;
6452;SDS011;3259;51.080;13.712;2023-04-15T09:24:09;0.22;;;0.22;;
6452;SDS011;3259;51.080;13.712;2023-04-15T09:26:57;0.50;;;0.10;;
6452;SDS011;3259;51.080;13.712;2023-04-15T09:29:48;0.15;;;0.15;;
6452;SDS011;3259;51.080;13.712;2023-04-15T09:32:37;1.42;;;0.30;;
6452;SDS011;3259;51.080;13.712;2023-04-15T09:35:36;0.22;;;0.20;;
6452;SDS011;3259;51.080;13.712;2023-04-15T09:38:26;0.88;;;0.15;;
6452;SDS011;3259;51.080;13.712;2023-04-15T09:41:15;0.65;;;0.32;;
6452;SDS011;3259;51.080;13.712;2023-04-15T09:44:05;2.25;;;0.35;;
6452;SDS011;3259;51.080;13.712;2023-04-15T09:46:54;14.20;;;1.48;;
6452;SDS011;3259;51.080;13.712;2023-04-15T09:49:48;2.78;;;0.55;;
6452;SDS011;3259;51.080;13.712;2023-04-15T09:52:43;4.18;;;0.75;;
6452;SDS011;3259;51.080;13.712;2023-04-15T09:55:33;3.30;;;0.40;;
6452;SDS011;3259;51.080;13.712;2023-04-15T09:58:22;4.25;;;0.40;;
6452;SDS011;3259;51.080;13.712;2023-04-15T10:01:12;2.10;;;0.90;;
6452;SDS011;3259;51.080;13.712;2023-04-15T10:04:02;6.00;;;0.32;;
6452;SDS011;3259;51.080;13.712;2023-04-15T10:06:52;2.60;;;0.35;;
6452;SDS011;3259;51.080;13.712;2023-04-15T10:09:41;0.80;;;0.30;;
6452;SDS011;3259;51.080;13.712;2023-04-15T10:12:32;2.47;;;0.57;;
6452;SDS011;3259;51.080;13.712;2023-04-15T10:15:22;2.10;;;0.43;;
6452;SDS011;3259;51.080;13.712;2023-04-15T10:18:12;2.05;;;0.40;;
6452;SDS011;3259;51.080;13.712;2023-04-15T10:21:04;2.80;;;0.30;;
6452;SDS011;3259;51.080;13.712;2023-04-15T10:23:52;0.70;;;0.47;;
6452;SDS011;3259;51.080;13.712;2023-04-15T10:26:41;1.10;;;0.20;;
6452;SDS011;3259;51.080;13.712;2023-04-15T10:29:31;0.93;;;0.40;;
6452;SDS011;3259;51.080;13.712;2023-04-15T10:32:20;2.78;;;0.32;;
6452;SDS011;3259;51.080;13.712;2023-04-15T10:35:09;2.45;;;0.60;;
6452;SDS011;3259;51.080;13.712;2023-04-15T10:37:58;0.32;;;0.32;;
6452;SDS011;3259;51.080;13.712;2023-04-15T10:40:47;0.13;;;0.13;;
6452;SDS011;3259;51.080;13.712;2023-04-15T10:43:38;0.60;;;0.40;;
6452;SDS011;3259;51.080;13.712;2023-04-15T10:46:35;0.20;;;0.20;;
6452;SDS011;3259;51.080;13.712;2023-04-15T10:49:24;0.30;;;0.30;;
6452;SDS011;3259;51.080;13.712;2023-04-15T10:52:14;1.00;;;0.40;;
6452;SDS011;3259;51.080;13.712;2023-04-15T10:55:11;3.50;;;0.40;;
6452;SDS011;3259;51.080;13.712;2023-04-15T10:58:01;0.35;;;0.20;;
6452;SDS011;3259;51.080;13.712;2023-04-15T11:00:50;1.65;;;0.60;;
6452;SDS011;3259;51.080;13.712;2023-04-15T11:03:41;4.13;;;0.38;;
6452;SDS011;3259;51.080;13.712;2023-04-15T11:06:42;2.67;;;0.35;;
6452;SDS011;3259;51.080;13.712;2023-04-15T11:09:32;1.17;;;0.45;;
6452;SDS011;3259;51.080;13.712;2023-04-15T11:12:22;1.83;;;0.40;;
6452;SDS011;3259;51.080;13.712;2023-04-15T11:15:26;10.52;;;0.40;;
6452;SDS011;3259;51.080;13.712;2023-04-15T11:18:17;0.68;;;0.25;;
6452;SDS011;3259;51.080;13.712;2023-04-15T11:21:09;1.88;;;0.30;;
6452;SDS011;3259;51.080;13.712;2023-04-15T11:23:58;0.80;;;0.10;;
6452;SDS011;3259;51.080;13.712;2023-04-15T11:26:49;0.93;;;0.32;;
6452;SDS011;3259;51.080;13.712;2023-04-15T11:29:38;8.43;;;0.90;;
6452;SDS011;3259;51.080;13.712;2023-04-15T11:32:27;1.80;;;0.40;;
6452;SDS011;3259;51.080;13.712;2023-04-15T11:35:17;5.70;;;0.40;;
6452;SDS011;3259;51.080;13.712;2023-04-15T11:38:09;1.60;;;0.40;;
6452;SDS011;3259;51.080;13.712;2023-04-15T11:40:59;5.97;;;1.20;;
6452;SDS011;3259;51.080;13.712;2023-04-15T11:43:48;8.93;;;1.38;;
6452;SDS011;3259;51.080;13.712;2023-04-15T11:46:37;5.50;;;0.60;;
6452;SDS011;3259;51.080;13.712;2023-04-15T11:49:27;5.57;;;0.55;;
6452;SDS011;3259;51.080;13.712;2023-04-15T11:52:16;12.35;;;1.00;;
6452;SDS011;3259;51.080;13.712;2023-04-15T11:55:07;10.55;;;0.65;;
6452;SDS011;3259;51.080;13.712;2023-04-15T11:58:07;5.95;;;1.00;;
6452;SDS011;3259;51.080;13.712;2023-04-15T12:00:57;6.53;;;0.50;;
6452;SDS011;3259;51.080;13.712;2023-04-15T12:03:48;3.67;;;0.50;;
6452;SDS011;3259;51.080;13.712;2023-04-15T12:06:37;7.65;;;0.40;;
6452;SDS011;3259;51.080;13.712;2023-04-15T12:09:26;5.35;;;0.80;;
6452;SDS011;3259;51.080;13.712;2023-04-15T12:12:19;1.33;;;0.50;;
6452;SDS011;3259;51.080;13.712;2023-04-15T12:15:08;2.08;;;0.30;;
6452;SDS011;3259;51.080;13.712;2023-04-15T12:17:57;1.17;;;0.30;;
6452;SDS011;3259;51.080;13.712;2023-04-15T12:20:47;1.10;;;0.40;;
6452;SDS011;3259;51.080;13.712;2023-04-15T12:23:36;6.78;;;0.55;;
6452;SDS011;3259;51.080;13.712;2023-04-15T12:26:26;1.67;;;0.55;;
6452;SDS011;3259;51.080;13.712;2023-04-15T12:29:17;9.68;;;0.70;;
6452;SDS011;3259;51.080;13.712;2023-04-15T12:32:07;1.67;;;0.40;;
6452;SDS011;3259;51.080;13.712;2023-04-15T12:34:56;1.45;;;0.30;;
6452;SDS011;3259;51.080;13.712;2023-04-15T12:37:45;4.55;;;0.30;;
6452;SDS011;3259;51.080;13.712;2023-04-15T12:40:34;0.68;;;0.38;;
6452;SDS011;3259;51.080;13.712;2023-04-15T12:43:23;0.95;;;0.50;;
6452;SDS011;3259;51.080;13.712;2023-04-15T12:46:20;2.08;;;0.28;;
6452;SDS011;3259;51.080;13.712;2023-04-15T12:49:10;2.25;;;0.25;;
6452;SDS011;3259;51.080;13.712;2023-04-15T12:52:00;1.33;;;0.32;;
6452;SDS011;3259;51.080;13.712;2023-04-15T12:54:50;1.00;;;0.30;;
6452;SDS011;3259;51.080;13.712;2023-04-15T12:57:39;0.38;;;0.30;;
6452;SDS011;3259;51.080;13.712;2023-04-15T13:00:28;3.53;;;0.40;;
6452;SDS011;3259;51.080;13.712;2023-04-15T13:03:18;2.15;;;0.20;;
6452;SDS011;3259;51.080;13.712;2023-04-15T13:06:08;1.83;;;0.40;;
6452;SDS011;3259;51.080;13.712;2023-04-15T13:08:57;0.25;;;0.20;;
6452;SDS011;3259;51.080;13.712;2023-04-15T13:11:48;1.85;;;0.32;;
6452;SDS011;3259;51.080;13.712;2023-04-15T13:14:38;0.52;;;0.40;;
6452;SDS011;3259;51.080;13.712;2023-04-15T13:17:28;3.03;;;0.65;;
6452;SDS011;3259;51.080;13.712;2023-04-15T13:20:18;2.33;;;0.43;;
6452;SDS011;3259;51.080;13.712;2023-04-15T13:23:08;1.50;;;0.73;;
6452;SDS011;3259;51.080;13.712;2023-04-15T13:25:57;3.22;;;0.63;;
6452;SDS011;3259;51.080;13.712;2023-04-15T13:28:46;1.58;;;1.13;;
6452;SDS011;3259;51.080;13.712;2023-04-15T13:31:38;2.88;;;1.50;;
6452;SDS011;3259;51.080;13.712;2023-04-15T13:34:28;2.17;;;0.68;;
6452;SDS011;3259;51.080;13.712;2023-04-15T13:37:18;7.20;;;1.90;;
6452;SDS011;3259;51.080;13.712;2023-04-15T13:40:08;3.40;;;1.10;;
6452;SDS011;3259;51.080;13.712;2023-04-15T13:42:58;4.78;;;1.55;;
6452;SDS011;3259;51.080;13.712;2023-04-15T13:45:47;4.93;;;1.20;;
6452;SDS011;3259;51.080;13.712;2023-04-15T13:48:36;1.58;;;1.25;;
6452;SDS011;3259;51.080;13.712;2023-04-15T13:51:26;1.98;;;1.30;;
6452;SDS011;3259;51.080;13.712;2023-04-15T13:54:16;3.08;;;1.38;;
6452;SDS011;3259;51.080;13.712;2023-04-15T13:57:04;3.50;;;1.17;;
6452;SDS011;3259;51.080;13.712;2023-04-15T13:59:53;2.85;;;1.25;;
6452;SDS011;3259;51.080;13.712;2023-04-15T14:02:42;2.47;;;1.15;;
6452;SDS011;3259;51.080;13.712;2023-04-15T14:05:32;2.90;;;1.52;;
6452;SDS011;3259;51.080;13.712;2023-04-15T14:08:24;2.88;;;1.05;;
6452;SDS011;3259;51.080;13.712;2023-04-15T14:11:14;1.63;;;0.93;;
6452;SDS011;3259;51.080;13.712;2023-04-15T14:14:03;1.83;;;1.30;;
6452;SDS011;3259;51.080;13.712;2023-04-15T14:16:52;1.63;;;1.10;;
6452;SDS011;3259;51.080;13.712;2023-04-15T14:19:42;20.27;;;2.47;;
6452;SDS011;3259;51.080;13.712;2023-04-15T14:22:31;34.70;;;3.05;;
6452;SDS011;3259;51.080;13.712;2023-04-15T14:25:20;22.92;;;2.95;;
6452;SDS011;3259;51.080;13.712;2023-04-15T14:28:21;223.77;;;15.48;;
6452;SDS011;3259;51.080;13.712;2023-04-15T14:31:10;90.45;;;7.75;;
6452;SDS011;3259;51.080;13.712;2023-04-15T14:33:59;48.28;;;3.85;;
6452;SDS011;3259;51.080;13.712;2023-04-15T14:36:49;22.77;;;2.75;;
6452;SDS011;3259;51.080;13.712;2023-04-15T14:39:39;28.17;;;2.83;;
6452;SDS011;3259;51.080;13.712;2023-04-15T14:42:28;23.20;;;2.35;;
6452;SDS011;3259;51.080;13.712;2023-04-15T14:45:19;18.55;;;2.17;;
6452;SDS011;3259;51.080;13.712;2023-04-15T14:48:09;39.58;;;5.22;;
6452;SDS011;3259;51.080;13.712;2023-04-15T14:50:58;65.85;;;7.32;;
6452;SDS011;3259;51.080;13.712;2023-04-15T14:53:48;48.58;;;4.30;;
6452;SDS011;3259;51.080;13.712;2023-04-15T14:56:37;135.70;;;8.80;;
6452;SDS011;3259;51.080;13.712;2023-04-15T14:59:31;41.55;;;3.33;;
6452;SDS011;3259;51.080;13.712;2023-04-15T15:02:23;65.95;;;4.40;;
6452;SDS011;3259;51.080;13.712;2023-04-15T15:05:25;39.03;;;3.97;;
6452;SDS011;3259;51.080;13.712;2023-04-15T15:08:14;30.73;;;3.80;;
6452;SDS011;3259;51.080;13.712;2023-04-15T15:11:04;16.40;;;3.17;;
6452;SDS011;3259;51.080;13.712;2023-04-15T15:13:57;25.42;;;2.33;;
6452;SDS011;3259;51.080;13.712;2023-04-15T15:16:46;14.07;;;2.15;;
6452;SDS011;3259;51.080;13.712;2023-04-15T15:19:44;19.08;;;2.35;;
6452;SDS011;3259;51.080;13.712;2023-04-15T15:22:33;11.18;;;1.98;;
6452;SDS011;3259;51.080;13.712;2023-04-15T15:25:30;18.40;;;2.35;;
6452;SDS011;3259;51.080;13.712;2023-04-15T15:28:20;11.25;;;2.38;;
6452;SDS011;3259;51.080;13.712;2023-04-15T15:31:09;6.25;;;1.60;;
6452;SDS011;3259;51.080;13.712;2023-04-15T15:34:01;8.30;;;1.35;;
6452;SDS011;3259;51.080;13.712;2023-04-15T15:36:53;10.57;;;1.77;;
6452;SDS011;3259;51.080;13.712;2023-04-15T15:39:43;7.95;;;1.45;;
6452;SDS011;3259;51.080;13.712;2023-04-15T15:42:33;9.02;;;2.13;;
6452;SDS011;3259;51.080;13.712;2023-04-15T15:45:22;8.07;;;1.52;;
6452;SDS011;3259;51.080;13.712;2023-04-15T15:48:13;8.77;;;1.40;;
6452;SDS011;3259;51.080;13.712;2023-04-15T15:51:04;5.10;;;1.70;;
6452;SDS011;3259;51.080;13.712;2023-04-15T15:53:55;9.23;;;1.77;;
6452;SDS011;3259;51.080;13.712;2023-04-15T15:56:45;7.10;;;1.50;;
6452;SDS011;3259;51.080;13.712;2023-04-15T15:59:34;5.60;;;1.25;;
6452;SDS011;3259;51.080;13.712;2023-04-15T16:02:27;4.60;;;1.40;;
6452;SDS011;3259;51.080;13.712;2023-04-15T16:05:39;5.05;;;1.00;;
6452;SDS011;3259;51.080;13.712;2023-04-15T16:08:33;4.20;;;1.10;;
6452;SDS011;3259;51.080;13.712;2023-04-15T16:11:32;3.95;;;1.50;;
6452;SDS011;3259;51.080;13.712;2023-04-15T16:14:24;6.50;;;1.77;;
6452;SDS011;3259;51.080;13.712;2023-04-15T16:17:25;5.57;;;0.98;;
6452;SDS011;3259;51.080;13.712;2023-04-15T16:20:14;2.72;;;0.82;;
6452;SDS011;3259;51.080;13.712;2023-04-15T16:23:05;2.25;;;1.05;;
6452;SDS011;3259;51.080;13.712;2023-04-15T16:25:56;1.65;;;0.60;;
6452;SDS011;3259;51.080;13.712;2023-04-15T16:28:47;7.03;;;1.67;;
6452;SDS011;3259;51.080;13.712;2023-04-15T16:31:36;4.32;;;0.93;;
6452;SDS011;3259;51.080;13.712;2023-04-15T16:34:28;1.17;;;0.75;;
6452;SDS011;3259;51.080;13.712;2023-04-15T16:37:17;1.33;;;0.52;;
6452;SDS011;3259;51.080;13.712;2023-04-15T16:40:06;1.75;;;0.60;;
6452;SDS011;3259;51.080;13.712;2023-04-15T16:42:56;0.90;;;0.80;;
6452;SDS011;3259;51.080;13.712;2023-04-15T16:45:46;1.17;;;0.43;;
6452;SDS011;3259;51.080;13.712;2023-04-15T16:48:37;0.60;;;0.60;;
6452;SDS011;3259;51.080;13.712;2023-04-15T16:51:28;1.27;;;0.70;;
6452;SDS011;3259;51.080;13.712;2023-04-15T16:54:17;1.38;;;0.60;;
6452;SDS011;3259;51.080;13.712;2023-04-15T16:57:06;1.20;;;0.60;;
6452;SDS011;3259;51.080;13.712;2023-04-15T16:59:55;1.55;;;0.50;;
6452;SDS011;3259;51.080;13.712;2023-04-15T17:02:44;1.00;;;0.30;;
6452;SDS011;3259;51.080;13.712;2023-04-15T17:05:35;1.08;;;0.70;;
6452;SDS011;3259;51.080;13.712;2023-04-15T17:08:26;0.50;;;0.43;;
6452;SDS011;3259;51.080;13.712;2023-04-15T17:11:18;3.10;;;0.70;;
6452;SDS011;3259;51.080;13.712;2023-04-15T17:14:09;0.60;;;0.60;;
6452;SDS011;3259;51.080;13.712;2023-04-15T17:16:58;0.52;;;0.52;;
6452;SDS011;3259;51.080;13.712;2023-04-15T17:19:47;0.52;;;0.50;;